createdAt,value
2018-07-24T00:00:21.901Z,16.40
2018-07-24T00:01:21.904Z,16.30
2018-07-24T00:02:21.706Z,16.00
2018-07-24T00:03:21.722Z,16.10
2018-07-24T00:04:21.739Z,16.60
2018-07-24T00:05:21.921Z,17.00
2018-07-24T00:06:21.722Z,17.80
2018-07-24T00:07:21.929Z,16.90
2018-07-24T00:08:21.931Z,17.90
2018-07-24T00:09:21.949Z,17.80
2018-07-24T00:10:21.744Z,18.50
2018-07-24T00:11:21.739Z,18.10
2018-07-24T00:12:21.946Z,18.30
2018-07-24T00:13:21.759Z,18.30
2018-07-24T00:14:21.750Z,18.00
2018-07-24T00:15:21.971Z,19.00
2018-07-24T00:16:21.758Z,18.50
2018-07-24T00:17:21.764Z,18.40
2018-07-24T00:18:21.766Z,18.00
2018-07-24T00:19:21.771Z,18.80
2018-07-24T00:20:21.977Z,18.30
2018-07-24T00:21:21.979Z,18.50
2018-07-24T00:22:21.793Z,18.10
2018-07-24T00:23:21.784Z,17.40
2018-07-24T00:24:21.993Z,17.90
2018-07-24T00:25:21.791Z,17.80
2018-07-24T00:26:21.794Z,17.80
2018-07-24T00:27:21.802Z,17.90
2018-07-24T00:28:22.009Z,17.30
2018-07-24T00:29:21.821Z,16.30
2018-07-24T00:30:22.016Z,17.10
2018-07-24T00:31:21.815Z,17.10
2018-07-24T00:32:22.042Z,16.70
2018-07-24T00:33:21.825Z,17.60
2018-07-24T00:34:21.841Z,17.20
2018-07-24T00:35:21.831Z,16.60
2018-07-24T00:36:21.859Z,16.70
2018-07-24T00:37:21.836Z,17.30
2018-07-24T00:38:21.867Z,16.40
2018-07-24T00:39:21.845Z,17.50
2018-07-24T00:40:21.857Z,18.00
2018-07-24T00:41:21.865Z,16.90
2018-07-24T00:42:21.882Z,17.00
2018-07-24T00:43:22.062Z,17.10
2018-07-24T00:44:22.065Z,17.10
2018-07-24T00:45:22.068Z,17.50
2018-07-24T00:46:22.074Z,16.90
2018-07-24T00:47:21.898Z,17.30
2018-07-24T00:48:22.077Z,17.20
2018-07-24T00:49:21.890Z,18.00
2018-07-24T00:50:21.898Z,18.00
2018-07-24T00:51:22.115Z,17.90
2018-07-24T00:52:21.921Z,17.20
2018-07-24T00:53:21.897Z,16.80
2018-07-24T00:54:21.902Z,17.90
2018-07-24T00:55:21.906Z,17.90
2018-07-24T00:56:21.910Z,17.90
2018-07-24T00:57:21.912Z,17.30
2018-07-24T00:58:21.912Z,18.50
2018-07-24T00:59:21.937Z,18.70
2018-07-24T01:00:22.125Z,18.30
2018-07-24T01:01:21.926Z,18.60
2018-07-24T01:02:21.953Z,18.50
2018-07-24T01:03:21.945Z,18.40
2018-07-24T01:04:21.933Z,19.10
2018-07-24T01:05:22.150Z,19.40
2018-07-24T01:06:22.142Z,19.40
2018-07-24T01:07:22.157Z,17.80
2018-07-24T01:08:21.960Z,18.90
2018-07-24T01:09:21.953Z,18.40
2018-07-24T01:10:21.985Z,18.70
2018-07-24T01:11:21.971Z,18.30
2018-07-24T01:12:21.977Z,18.50
2018-07-24T01:13:21.977Z,19.30
2018-07-24T01:14:21.980Z,19.80
2018-07-24T01:15:21.988Z,19.80
2018-07-24T01:16:22.179Z,19.00
2018-07-24T01:17:21.982Z,19.00
2018-07-24T01:18:22.204Z,17.70
2018-07-24T01:19:22.001Z,18.30
2018-07-24T01:20:22.006Z,19.20
2018-07-24T01:21:22.011Z,18.80
2018-07-24T01:22:22.009Z,19.20
2018-07-24T01:23:22.013Z,17.60
2018-07-24T01:24:22.034Z,18.50
2018-07-24T01:25:22.013Z,18.00
2018-07-24T01:26:22.227Z,19.00
2018-07-24T01:27:22.017Z,17.70
2018-07-24T01:28:22.020Z,18.30
2018-07-24T01:29:22.022Z,18.00
2018-07-24T01:30:22.026Z,18.50
2018-07-24T01:31:22.256Z,17.60
2018-07-24T01:32:22.037Z,17.40
2018-07-24T01:33:22.039Z,17.20
2018-07-24T01:34:22.041Z,17.60
2018-07-24T01:35:22.045Z,18.00
2018-07-24T01:36:22.046Z,17.20
2018-07-24T01:37:22.052Z,18.50
2018-07-24T01:38:22.053Z,18.30
2018-07-24T01:39:22.272Z,16.90
2018-07-24T01:40:22.069Z,18.90
2018-07-24T01:41:22.075Z,19.10
2018-07-24T01:42:22.067Z,18.60
2018-07-24T01:43:22.074Z,17.90
2018-07-24T01:44:22.086Z,19.00
2018-07-24T01:45:22.077Z,18.10
2018-07-24T01:46:22.080Z,18.80
2018-07-24T01:47:22.298Z,18.20
2018-07-24T01:48:22.092Z,18.50
2018-07-24T01:49:22.106Z,19.10
2018-07-24T01:50:22.097Z,18.20
2018-07-24T01:51:22.099Z,18.40
2018-07-24T01:52:22.314Z,18.30
2018-07-24T01:53:22.104Z,18.10
2018-07-24T01:54:22.123Z,18.20
2018-07-24T01:55:22.111Z,17.20
2018-07-24T01:56:22.124Z,17.70
2018-07-24T01:57:22.117Z,17.50
2018-07-24T01:58:22.118Z,18.20
2018-07-24T01:59:22.124Z,17.00
2018-07-24T02:00:22.129Z,17.90
2018-07-24T02:01:22.141Z,18.00
2018-07-24T02:02:22.347Z,17.50
2018-07-24T02:03:22.151Z,17.00
2018-07-24T02:04:22.154Z,18.00
2018-07-24T02:05:22.348Z,17.20
2018-07-24T02:06:22.156Z,16.60
2018-07-24T02:07:22.150Z,17.00
2018-07-24T02:08:22.164Z,17.60
2018-07-24T02:09:22.160Z,17.60
2018-07-24T02:10:22.184Z,18.00
2018-07-24T02:11:22.164Z,18.50
2018-07-24T02:12:22.184Z,18.60
2018-07-24T02:13:22.174Z,18.90
2018-07-24T02:14:22.192Z,19.40
2018-07-24T02:15:22.176Z,19.10
2018-07-24T02:16:22.386Z,19.60
2018-07-24T02:17:22.182Z,19.10
2018-07-24T02:18:22.188Z,18.30
2018-07-24T02:19:22.202Z,19.70
2018-07-24T02:20:22.397Z,18.70
2018-07-24T02:21:22.198Z,18.70
2018-07-24T02:22:22.199Z,18.60
2018-07-24T02:23:22.406Z,18.60
2018-07-24T02:24:22.206Z,18.30
2018-07-24T02:25:22.213Z,18.70
2018-07-24T02:26:22.228Z,19.30
2018-07-24T02:27:22.218Z,18.70
2018-07-24T02:28:22.219Z,19.30
2018-07-24T02:29:22.225Z,18.80
2018-07-24T02:30:22.429Z,19.20
2018-07-24T02:31:22.434Z,18.80
2018-07-24T02:32:22.237Z,19.00
2018-07-24T02:33:22.439Z,19.10
2018-07-24T02:34:22.239Z,18.90
2018-07-24T02:35:22.246Z,18.70
2018-07-24T02:36:22.243Z,19.20
2018-07-24T02:37:22.248Z,19.60
2018-07-24T02:38:22.455Z,19.80
2018-07-24T02:39:22.254Z,19.60
2018-07-24T02:40:22.268Z,18.90
2018-07-24T02:41:22.271Z,18.80
2018-07-24T02:42:22.290Z,19.00
2018-07-24T02:43:22.268Z,19.90
2018-07-24T02:44:22.280Z,18.70
2018-07-24T02:45:22.274Z,18.00
2018-07-24T02:46:22.275Z,19.70
2018-07-24T02:47:22.281Z,19.80
2018-07-24T02:48:22.299Z,20.10
2018-07-24T02:49:22.312Z,19.20
2018-07-24T02:50:22.287Z,19.80
2018-07-24T02:51:22.306Z,20.20
2018-07-24T02:52:22.296Z,20.40
2018-07-24T02:53:22.329Z,19.90
2018-07-24T02:54:22.505Z,20.50
2018-07-24T02:55:22.306Z,19.90
2018-07-24T02:56:22.333Z,19.70
2018-07-24T02:57:22.524Z,19.40
2018-07-24T02:58:22.332Z,19.60
2018-07-24T02:59:22.337Z,19.50
2018-07-24T03:00:22.321Z,19.60
2018-07-24T03:01:22.326Z,18.90
2018-07-24T03:02:22.527Z,18.60
2018-07-24T03:03:22.546Z,19.40
2018-07-24T03:04:22.332Z,19.30
2018-07-24T03:05:22.349Z,18.90
2018-07-24T03:06:22.547Z,18.40
2018-07-24T03:07:22.351Z,18.40
2018-07-24T03:08:22.358Z,19.50
2018-07-24T03:09:22.348Z,18.70
2018-07-24T03:10:22.360Z,18.40
2018-07-24T03:11:22.361Z,18.80
2018-07-24T03:12:22.355Z,18.50
2018-07-24T03:13:22.360Z,17.60
2018-07-24T03:14:22.563Z,18.20
2018-07-24T03:15:22.368Z,18.30
2018-07-24T03:16:22.456Z,18.70
2018-07-24T03:17:22.372Z,18.60
2018-07-24T03:18:22.376Z,18.80
2018-07-24T03:19:22.393Z,18.70
2018-07-24T03:20:22.390Z,19.10
2018-07-24T03:21:22.384Z,19.20
2018-07-24T03:22:22.395Z,19.40
2018-07-24T03:23:22.387Z,18.70
2018-07-24T03:24:22.393Z,20.60
2018-07-24T03:25:22.396Z,20.70
2018-07-24T03:26:22.399Z,18.90
2018-07-24T03:27:22.602Z,20.10
2018-07-24T03:28:22.420Z,19.90
2018-07-24T03:29:22.620Z,19.30
2018-07-24T03:30:22.411Z,20.80
2018-07-24T03:31:22.413Z,20.60
2018-07-24T03:32:22.426Z,20.80
2018-07-24T03:33:22.418Z,21.50
2018-07-24T03:34:22.445Z,21.50
2018-07-24T03:35:22.432Z,20.40
2018-07-24T03:36:22.425Z,20.90
2018-07-24T03:37:22.429Z,21.30
2018-07-24T03:38:22.442Z,20.30
2018-07-24T03:39:22.434Z,21.00
2018-07-24T03:40:22.438Z,19.60
2018-07-24T03:41:22.641Z,20.00
2018-07-24T03:42:22.441Z,20.70
2018-07-24T03:43:22.447Z,21.00
2018-07-24T03:44:22.462Z,20.60
2018-07-24T03:45:22.453Z,19.70
2018-07-24T03:46:22.456Z,20.20
2018-07-24T03:47:22.671Z,19.10
2018-07-24T03:48:22.471Z,19.80
2018-07-24T03:49:22.475Z,19.70
2018-07-24T03:50:22.678Z,20.10
2018-07-24T03:51:22.687Z,20.10
2018-07-24T03:52:22.498Z,20.30
2018-07-24T03:53:22.490Z,19.20
2018-07-24T03:54:22.478Z,20.90
2018-07-24T03:55:22.479Z,20.10
2018-07-24T03:56:22.500Z,19.60
2018-07-24T03:57:22.484Z,19.20
2018-07-24T03:58:22.487Z,19.70
2018-07-24T03:59:22.490Z,19.70
2018-07-24T04:00:22.496Z,19.40
2018-07-24T04:01:22.497Z,20.40
2018-07-24T04:02:22.550Z,19.50
2018-07-24T04:03:22.513Z,18.90
2018-07-24T04:04:22.708Z,20.50
2018-07-24T04:05:22.509Z,19.20
2018-07-24T04:06:22.513Z,18.80
2018-07-24T04:07:22.720Z,18.80
2018-07-24T04:08:22.515Z,19.10
2018-07-24T04:09:22.522Z,20.10
2018-07-24T04:10:22.536Z,19.90
2018-07-24T04:11:22.528Z,19.00
2018-07-24T04:12:22.527Z,18.90
2018-07-24T04:13:22.529Z,19.20
2018-07-24T04:14:22.533Z,19.80
2018-07-24T04:15:22.546Z,19.40
2018-07-24T04:16:22.750Z,18.60
2018-07-24T04:17:22.554Z,18.40
2018-07-24T04:18:22.551Z,18.40
2018-07-24T04:19:22.549Z,18.70
2018-07-24T04:20:22.755Z,18.90
2018-07-24T04:21:22.552Z,18.10
2018-07-24T04:22:22.554Z,18.30
2018-07-24T04:23:22.761Z,17.60
2018-07-24T04:24:22.766Z,17.70
2018-07-24T04:25:22.767Z,17.50
2018-07-24T04:26:22.581Z,18.10
2018-07-24T04:27:22.584Z,17.70
2018-07-24T04:28:22.572Z,18.00
2018-07-24T04:29:22.588Z,18.40
2018-07-24T04:30:22.588Z,18.80
2018-07-24T04:31:22.583Z,18.20
2018-07-24T04:32:22.586Z,17.70
2018-07-24T04:33:22.822Z,18.60
2018-07-24T04:34:22.792Z,17.50
2018-07-24T04:35:22.605Z,18.70
2018-07-24T04:36:22.597Z,18.80
2018-07-24T04:37:22.611Z,18.70
2018-07-24T04:38:22.804Z,18.50
2018-07-24T04:39:22.608Z,19.90
2018-07-24T04:40:22.619Z,19.00
2018-07-24T04:41:22.610Z,19.90
2018-07-24T04:42:22.629Z,19.50
2018-07-24T04:43:22.618Z,19.70
2018-07-24T04:44:22.618Z,19.80
2018-07-24T04:45:22.651Z,19.60
2018-07-24T04:46:22.623Z,19.70
2018-07-24T04:47:22.627Z,19.90
2018-07-24T04:48:22.642Z,19.60
2018-07-24T04:49:22.644Z,19.20
2018-07-24T04:50:22.652Z,19.50
2018-07-24T04:51:22.639Z,20.20
2018-07-24T04:52:22.643Z,19.90
2018-07-24T04:53:22.645Z,20.30
2018-07-24T04:54:22.670Z,20.50
2018-07-24T04:55:22.651Z,19.60
2018-07-24T04:56:22.666Z,21.20
2018-07-24T04:57:22.860Z,20.40
2018-07-24T04:58:22.659Z,21.00
2018-07-24T04:59:22.664Z,19.40
2018-07-24T05:00:22.680Z,20.60
2018-07-24T05:01:22.681Z,20.80
2018-07-24T05:02:22.683Z,20.80
2018-07-24T05:03:22.782Z,21.40
2018-07-24T05:04:22.896Z,21.50
2018-07-24T05:05:22.701Z,21.90
2018-07-24T05:06:22.901Z,21.90
2018-07-24T05:07:22.906Z,21.80
2018-07-24T05:08:22.692Z,22.80
2018-07-24T05:09:22.708Z,21.70
2018-07-24T05:10:22.705Z,21.30
2018-07-24T05:11:22.700Z,22.20
2018-07-24T05:12:22.724Z,22.10
2018-07-24T05:13:22.724Z,22.10
2018-07-24T05:14:22.721Z,21.90
2018-07-24T05:15:22.728Z,23.10
2018-07-24T05:16:22.719Z,23.70
2018-07-24T05:17:22.752Z,22.60
2018-07-24T05:18:22.927Z,23.20
2018-07-24T05:19:22.931Z,23.30
2018-07-24T05:20:22.731Z,23.40
2018-07-24T05:21:22.748Z,23.70
2018-07-24T05:22:22.752Z,24.20
2018-07-24T05:23:22.739Z,23.60
2018-07-24T05:24:22.742Z,23.00
2018-07-24T05:25:22.747Z,23.20
2018-07-24T05:26:22.767Z,23.10
2018-07-24T05:27:22.958Z,23.60
2018-07-24T05:28:22.759Z,23.90
2018-07-24T05:29:22.771Z,23.60
2018-07-24T05:30:22.971Z,23.10
2018-07-24T05:31:22.792Z,23.20
2018-07-24T05:32:22.772Z,22.90
2018-07-24T05:33:22.778Z,22.70
2018-07-24T05:34:22.790Z,25.90
2018-07-24T05:35:22.784Z,24.60
2018-07-24T05:36:22.786Z,23.70
2018-07-24T05:37:22.995Z,27.40
2018-07-24T05:38:22.793Z,25.50
2018-07-24T05:39:22.798Z,24.70
2018-07-24T05:40:22.800Z,22.50
2018-07-24T05:41:22.805Z,23.20
2018-07-24T05:42:22.808Z,22.70
2018-07-24T05:43:22.813Z,23.20
2018-07-24T05:44:22.815Z,24.20
2018-07-24T05:45:22.833Z,22.80
2018-07-24T05:46:22.824Z,23.70
2018-07-24T05:47:22.827Z,23.10
2018-07-24T05:48:22.831Z,23.90
2018-07-24T05:49:22.846Z,23.30
2018-07-24T05:50:22.839Z,23.50
2018-07-24T05:51:22.843Z,23.80
2018-07-24T05:52:22.846Z,21.90
2018-07-24T05:53:22.851Z,22.30
2018-07-24T05:54:22.854Z,21.70
2018-07-24T05:55:22.857Z,22.60
2018-07-24T05:56:22.860Z,23.90
2018-07-24T05:57:22.867Z,22.80
2018-07-24T05:58:22.869Z,22.80
2018-07-24T05:59:22.884Z,21.60
2018-07-24T06:00:22.891Z,22.00
2018-07-24T06:01:22.882Z,21.30
2018-07-24T06:02:22.885Z,21.40
2018-07-24T06:03:22.890Z,21.30
2018-07-24T06:04:22.892Z,20.30
2018-07-24T06:05:22.900Z,20.00
2018-07-24T06:06:22.901Z,20.40
2018-07-24T06:07:22.945Z,19.80
2018-07-24T06:08:22.929Z,18.40
2018-07-24T06:09:22.916Z,17.90
2018-07-24T06:10:22.932Z,17.60
2018-07-24T06:11:22.923Z,16.90
2018-07-24T06:12:22.937Z,16.80
2018-07-24T06:13:22.962Z,16.60
2018-07-24T06:14:22.962Z,16.70
2018-07-24T06:15:22.943Z,16.70
2018-07-24T06:16:22.964Z,17.20
2018-07-24T06:17:22.983Z,16.70
2018-07-24T06:18:22.954Z,16.90
2018-07-24T06:19:22.986Z,15.50
2018-07-24T06:20:22.975Z,15.40
2018-07-24T06:21:22.970Z,16.00
2018-07-24T06:22:22.974Z,16.10
2018-07-24T06:23:22.986Z,15.40
2018-07-24T06:24:22.995Z,14.10
2018-07-24T06:25:22.995Z,14.70
2018-07-24T06:26:23.216Z,14.70
2018-07-24T06:27:23.017Z,14.90
2018-07-24T06:28:23.002Z,14.30
2018-07-24T06:29:23.058Z,13.70
2018-07-24T06:30:23.009Z,13.30
2018-07-24T06:31:23.013Z,13.90
2018-07-24T06:32:23.033Z,13.20
2018-07-24T06:33:23.043Z,14.10
2018-07-24T06:34:23.029Z,13.70
2018-07-24T06:35:23.042Z,12.90
2018-07-24T06:36:23.045Z,12.50
2018-07-24T06:37:23.055Z,13.20
2018-07-24T06:38:23.261Z,13.80
2018-07-24T06:39:23.050Z,12.40
2018-07-24T06:40:23.055Z,12.40
2018-07-24T06:41:23.058Z,12.70
2018-07-24T06:42:23.064Z,13.90
2018-07-24T06:43:23.070Z,13.10
2018-07-24T06:44:23.315Z,12.30
2018-07-24T06:45:23.080Z,11.80
2018-07-24T06:46:23.297Z,11.60
2018-07-24T06:47:23.089Z,12.50
2018-07-24T06:48:23.094Z,12.60
2018-07-24T06:49:23.307Z,13.10
2018-07-24T06:50:23.107Z,12.50
2018-07-24T06:51:23.127Z,12.90
2018-07-24T06:52:23.113Z,12.70
2018-07-24T06:53:23.118Z,12.10
2018-07-24T06:54:23.128Z,11.90
2018-07-24T06:55:23.131Z,11.80
2018-07-24T06:56:23.365Z,11.70
2018-07-24T06:57:23.357Z,12.00
2018-07-24T06:58:23.346Z,12.10
2018-07-24T06:59:23.159Z,12.10
2018-07-24T07:00:23.155Z,11.50
2018-07-24T07:01:23.364Z,12.50
2018-07-24T07:02:23.165Z,12.40
2018-07-24T07:03:23.228Z,11.40
2018-07-24T07:04:23.378Z,11.30
2018-07-24T07:05:23.182Z,11.30
2018-07-24T07:06:23.184Z,11.20
2018-07-24T07:07:23.214Z,12.20
2018-07-24T07:08:23.199Z,11.20
2018-07-24T07:09:23.415Z,11.00
2018-07-24T07:10:23.326Z,10.70
2018-07-24T07:11:23.222Z,10.70
2018-07-24T07:12:23.217Z,10.70
2018-07-24T07:13:23.277Z,10.30
2018-07-24T07:14:23.227Z,10.40
2018-07-24T07:15:23.435Z,10.50
2018-07-24T07:16:23.241Z,10.90
2018-07-24T07:17:23.245Z,10.40
2018-07-24T07:18:23.247Z,8.80
2018-07-24T07:19:23.254Z,8.10
2018-07-24T07:20:23.467Z,8.60
2018-07-24T07:21:23.266Z,9.20
2018-07-24T07:22:23.271Z,9.10
2018-07-24T07:23:23.301Z,8.60
2018-07-24T07:24:23.293Z,9.60
2018-07-24T07:25:23.287Z,9.50
2018-07-24T07:26:23.506Z,9.50
2018-07-24T07:27:23.298Z,9.70
2018-07-24T07:28:23.306Z,8.80
2018-07-24T07:29:23.324Z,7.80
2018-07-24T07:30:23.315Z,8.00
2018-07-24T07:31:23.333Z,7.50
2018-07-24T07:32:23.430Z,8.10
2018-07-24T07:33:23.335Z,7.30
2018-07-24T07:34:23.539Z,9.60
2018-07-24T07:35:23.555Z,7.20
2018-07-24T07:36:23.365Z,6.70
2018-07-24T07:37:23.356Z,6.20
2018-07-24T07:38:23.391Z,8.60
2018-07-24T07:39:23.383Z,6.40
2018-07-24T07:40:23.387Z,6.20
2018-07-24T07:41:23.580Z,6.60
2018-07-24T07:42:23.402Z,7.00
2018-07-24T07:43:23.408Z,7.00
2018-07-24T07:44:23.397Z,6.00
2018-07-24T07:45:23.491Z,5.70
2018-07-24T07:46:23.407Z,5.70
2018-07-24T07:47:23.424Z,5.70
2018-07-24T07:48:23.637Z,5.90
2018-07-24T07:49:23.640Z,5.70
2018-07-24T07:50:23.636Z,6.40
2018-07-24T07:51:23.471Z,5.90
2018-07-24T07:52:23.673Z,6.10
2018-07-24T07:53:23.449Z,6.10
2018-07-24T07:54:23.455Z,5.70
2018-07-24T07:55:23.489Z,5.40
2018-07-24T07:56:23.479Z,5.60
2018-07-24T07:57:23.504Z,5.60
2018-07-24T07:58:23.489Z,6.10
2018-07-24T07:59:23.691Z,5.80
2018-07-24T08:00:23.506Z,5.70
2018-07-24T08:01:23.505Z,6.40
2018-07-24T08:02:23.509Z,6.20
2018-07-24T08:03:23.712Z,6.40
2018-07-24T08:04:23.657Z,5.90
2018-07-24T08:05:23.523Z,6.40
2018-07-24T08:06:23.543Z,6.90
2018-07-24T08:07:23.537Z,6.80
2018-07-24T08:08:23.765Z,6.60
2018-07-24T08:09:23.559Z,6.60
2018-07-24T08:10:23.557Z,6.50
2018-07-24T08:11:23.764Z,6.80
2018-07-24T08:12:23.616Z,6.10
2018-07-24T08:13:23.576Z,6.40
2018-07-24T08:14:23.591Z,5.90
2018-07-24T08:15:23.598Z,6.50
2018-07-24T08:16:23.595Z,5.80
2018-07-24T08:17:23.604Z,5.40
2018-07-24T08:18:23.823Z,5.80
2018-07-24T08:19:23.819Z,5.80
2018-07-24T08:20:23.622Z,5.90
2018-07-24T08:21:23.629Z,5.40
2018-07-24T08:22:23.698Z,6.10
2018-07-24T08:23:23.858Z,5.30
2018-07-24T08:24:23.668Z,5.70
2018-07-24T08:25:23.665Z,5.60
2018-07-24T08:26:23.660Z,6.20
2018-07-24T08:27:23.677Z,6.00
2018-07-24T08:28:23.674Z,4.60
2018-07-24T08:29:23.692Z,5.20
2018-07-24T08:30:23.688Z,5.10
2018-07-24T08:31:23.705Z,6.00
2018-07-24T08:32:23.703Z,5.60
2018-07-24T08:33:23.709Z,5.70
2018-07-24T08:34:23.715Z,5.40
2018-07-24T08:35:23.727Z,5.40
2018-07-24T08:36:23.727Z,5.00
2018-07-24T08:37:23.737Z,5.70
2018-07-24T08:38:23.959Z,5.20
2018-07-24T08:39:23.750Z,5.50
2018-07-24T08:40:23.958Z,5.50
2018-07-24T08:41:23.976Z,7.40
2018-07-24T08:42:23.770Z,5.10
2018-07-24T08:43:23.776Z,4.70
2018-07-24T08:44:23.782Z,7.00
2018-07-24T08:45:23.992Z,5.80
2018-07-24T08:46:24.013Z,5.10
2018-07-24T08:47:23.807Z,6.80
2018-07-24T08:48:23.810Z,5.80
2018-07-24T08:49:23.816Z,6.10
2018-07-24T08:50:23.822Z,6.60
2018-07-24T08:51:23.830Z,4.70
2018-07-24T08:52:24.080Z,5.20
2018-07-24T08:53:24.026Z,4.70
2018-07-24T08:54:24.066Z,5.30
2018-07-24T08:55:24.346Z,6.40
2018-07-24T08:56:23.879Z,7.10
2018-07-24T08:57:23.872Z,7.10
2018-07-24T08:58:23.891Z,5.90
2018-07-24T08:59:24.089Z,5.90
2018-07-24T09:00:23.891Z,5.00
2018-07-24T09:01:23.940Z,4.80
2018-07-24T09:02:23.912Z,5.50
2018-07-24T09:03:24.004Z,5.50
2018-07-24T09:04:24.149Z,5.10
2018-07-24T09:05:23.927Z,5.40
2018-07-24T09:06:23.933Z,5.00
2018-07-24T09:07:23.949Z,6.00
2018-07-24T09:08:24.160Z,5.80
2018-07-24T09:09:23.963Z,5.40
2018-07-24T09:10:24.174Z,4.80
2018-07-24T09:11:23.967Z,5.30
2018-07-24T09:12:23.972Z,5.60
2018-07-24T09:13:23.981Z,4.30
2018-07-24T09:14:23.986Z,4.90
2018-07-24T09:15:24.049Z,4.50
2018-07-24T09:16:23.999Z,4.50
2018-07-24T09:17:24.226Z,5.10
2018-07-24T09:18:24.227Z,4.70
2018-07-24T09:19:24.223Z,4.60
2018-07-24T09:20:24.028Z,4.80
2018-07-24T09:21:24.237Z,5.30
2018-07-24T09:22:24.041Z,5.10
2018-07-24T09:23:24.059Z,5.60
2018-07-24T09:24:24.056Z,5.90
2018-07-24T09:25:24.266Z,5.20
2018-07-24T09:26:24.293Z,4.80
2018-07-24T09:27:24.081Z,6.10
2018-07-24T09:28:24.291Z,5.10
2018-07-24T09:29:24.089Z,4.80
2018-07-24T09:30:24.097Z,4.80
2018-07-24T09:31:24.114Z,5.30
2018-07-24T09:32:24.329Z,4.40
2018-07-24T09:33:24.134Z,5.10
2018-07-24T09:34:24.124Z,4.80
2018-07-24T09:35:24.131Z,4.40
2018-07-24T09:36:24.344Z,4.40
2018-07-24T09:37:24.147Z,4.90
2018-07-24T09:38:24.370Z,4.50
2018-07-24T09:39:24.169Z,4.80
2018-07-24T09:40:24.373Z,4.20
2018-07-24T09:41:24.197Z,5.00
2018-07-24T09:42:24.188Z,6.40
2018-07-24T09:43:24.389Z,4.50
2018-07-24T09:44:24.429Z,4.40
2018-07-24T09:45:24.429Z,4.80
2018-07-24T09:46:24.221Z,4.70
2018-07-24T09:47:24.242Z,4.30
2018-07-24T09:48:24.237Z,4.50
2018-07-24T09:49:24.247Z,4.70
2018-07-24T09:50:24.243Z,4.40
2018-07-24T09:51:24.472Z,4.50
2018-07-24T09:52:24.253Z,4.80
2018-07-24T09:53:24.259Z,4.90
2018-07-24T09:54:24.266Z,4.40
2018-07-24T09:55:24.275Z,4.20
2018-07-24T09:56:24.538Z,4.40
2018-07-24T09:57:24.285Z,4.20
2018-07-24T09:58:24.301Z,4.20
2018-07-24T09:59:24.351Z,5.20
2018-07-24T10:00:24.310Z,4.90
2018-07-24T10:01:24.314Z,4.20
2018-07-24T10:02:24.323Z,6.60
2018-07-24T10:03:24.533Z,4.90
2018-07-24T10:04:24.551Z,4.30
2018-07-24T10:05:24.419Z,4.00
2018-07-24T10:06:24.356Z,4.20
2018-07-24T10:07:24.357Z,3.90
2018-07-24T10:08:24.395Z,4.40
2018-07-24T10:09:24.379Z,4.60
2018-07-24T10:10:24.578Z,4.90
2018-07-24T10:11:24.384Z,4.60
2018-07-24T10:12:24.393Z,4.00
2018-07-24T10:13:24.670Z,4.00
2018-07-24T10:14:24.408Z,4.00
2018-07-24T10:15:24.417Z,4.50
2018-07-24T10:16:24.428Z,4.40
2018-07-24T10:17:24.428Z,4.90
2018-07-24T10:18:24.436Z,4.50
2018-07-24T10:19:24.442Z,3.90
2018-07-24T10:20:24.452Z,4.10
2018-07-24T10:21:24.457Z,4.40
2018-07-24T10:22:24.536Z,4.50
2018-07-24T10:23:24.672Z,4.10
2018-07-24T10:24:24.560Z,4.40
2018-07-24T10:25:24.499Z,4.30
2018-07-24T10:26:24.694Z,3.90
2018-07-24T10:27:24.513Z,4.30
2018-07-24T10:28:24.508Z,3.60
2018-07-24T10:29:24.718Z,4.10
2018-07-24T10:30:24.555Z,4.40
2018-07-24T10:31:24.543Z,4.80
2018-07-24T10:32:24.738Z,4.10
2018-07-24T10:33:24.757Z,4.00
2018-07-24T10:34:24.560Z,4.00
2018-07-24T10:35:24.561Z,3.60
2018-07-24T10:36:24.802Z,3.30
2018-07-24T10:37:24.581Z,4.20
2018-07-24T10:38:24.795Z,3.80
2018-07-24T10:39:24.601Z,3.80
2018-07-24T10:40:24.595Z,4.60
2018-07-24T10:41:24.614Z,3.80
2018-07-24T10:42:24.609Z,3.60
2018-07-24T10:43:24.822Z,3.70
2018-07-24T10:44:24.633Z,4.40
2018-07-24T10:45:24.646Z,4.00
2018-07-24T10:46:24.842Z,3.70
2018-07-24T10:47:24.673Z,4.00
2018-07-24T10:48:24.650Z,3.80
2018-07-24T10:49:24.956Z,3.70
2018-07-24T10:50:24.670Z,3.60
2018-07-24T10:51:24.699Z,3.90
2018-07-24T10:52:24.698Z,3.70
2018-07-24T10:53:24.703Z,3.40
2018-07-24T10:54:24.707Z,3.70
2018-07-24T10:55:24.704Z,4.30
2018-07-24T10:56:24.713Z,4.50
2018-07-24T10:57:24.730Z,3.70
2018-07-24T10:58:24.747Z,3.50
2018-07-24T10:59:24.747Z,4.00
2018-07-24T11:00:24.740Z,4.20
2018-07-24T11:01:24.953Z,3.20
2018-07-24T11:02:24.776Z,6.40
2018-07-24T11:03:24.778Z,3.40
2018-07-24T11:04:24.782Z,2.80
2018-07-24T11:05:24.825Z,3.30
2018-07-24T11:06:24.786Z,3.70
2018-07-24T11:07:24.799Z,3.40
2018-07-24T11:08:25.003Z,3.40
2018-07-24T11:09:25.015Z,3.20
2018-07-24T11:10:24.818Z,4.50
2018-07-24T11:11:24.826Z,3.80
2018-07-24T11:12:24.834Z,3.20
2018-07-24T11:13:24.838Z,4.80
2018-07-24T11:14:24.845Z,3.50
2018-07-24T11:15:25.090Z,3.10
2018-07-24T11:16:24.892Z,2.80
2018-07-24T11:17:25.085Z,3.00
2018-07-24T11:18:25.094Z,3.00
2018-07-24T11:19:24.895Z,2.90
2018-07-24T11:20:24.893Z,3.20
2018-07-24T11:21:24.901Z,2.70
2018-07-24T11:22:25.258Z,3.10
2018-07-24T11:23:24.930Z,3.20
2018-07-24T11:24:24.932Z,3.00
2018-07-24T11:25:24.947Z,3.10
2018-07-24T11:26:24.939Z,3.40
2018-07-24T11:27:24.956Z,3.20
2018-07-24T11:28:25.026Z,3.00
2018-07-24T11:29:24.964Z,3.20
2018-07-24T11:30:25.192Z,4.00
2018-07-24T11:31:24.977Z,3.40
2018-07-24T11:32:24.998Z,3.30
2018-07-24T11:33:25.073Z,3.00
2018-07-24T11:34:25.236Z,3.40
2018-07-24T11:35:25.253Z,3.20
2018-07-24T11:36:25.036Z,3.40
2018-07-24T11:37:25.039Z,2.70
2018-07-24T11:38:25.041Z,3.00
2018-07-24T11:39:25.255Z,2.80
2018-07-24T11:40:25.057Z,2.90
2018-07-24T11:41:25.070Z,3.20
2018-07-24T11:42:25.265Z,3.40
2018-07-24T11:43:25.299Z,3.90
2018-07-24T11:44:25.095Z,2.70
2018-07-24T11:45:25.291Z,2.70
2018-07-24T11:46:25.140Z,3.00
2018-07-24T11:47:25.132Z,2.80
2018-07-24T11:48:25.135Z,3.20
2018-07-24T11:49:25.118Z,3.40
2018-07-24T11:50:25.129Z,3.00
2018-07-24T11:51:25.158Z,3.20
2018-07-24T11:52:25.349Z,3.20
2018-07-24T11:53:25.353Z,2.80
2018-07-24T11:54:25.156Z,2.90
2018-07-24T11:55:25.178Z,2.90
2018-07-24T11:56:25.181Z,3.40
2018-07-24T11:57:25.186Z,3.50
2018-07-24T11:58:25.188Z,3.40
2018-07-24T11:59:25.197Z,3.50
2018-07-24T12:00:25.209Z,3.60
2018-07-24T12:01:25.212Z,3.40
2018-07-24T12:02:25.221Z,3.40
2018-07-24T12:03:25.233Z,3.30
2018-07-24T12:04:25.438Z,3.40
2018-07-24T12:05:25.446Z,3.50
2018-07-24T12:06:25.252Z,3.50
2018-07-24T12:07:25.482Z,3.50
2018-07-24T12:08:25.266Z,3.10
2018-07-24T12:09:25.274Z,3.00
2018-07-24T12:10:25.284Z,3.00
2018-07-24T12:11:25.306Z,3.00
2018-07-24T12:12:25.311Z,3.40
2018-07-24T12:13:25.318Z,4.20
2018-07-24T12:14:25.325Z,3.10
2018-07-24T12:15:25.322Z,3.50
2018-07-24T12:16:25.330Z,3.20
2018-07-24T12:17:25.347Z,2.70
2018-07-24T12:18:58.562Z,2.90
2018-07-24T12:19:25.402Z,2.80
2018-07-24T12:20:25.380Z,3.10
2018-07-24T12:21:25.369Z,3.10
2018-07-24T12:22:25.379Z,3.50
2018-07-24T12:23:25.391Z,3.00
2018-07-24T12:24:25.411Z,3.20
2018-07-24T12:25:25.402Z,3.30
2018-07-24T12:26:25.410Z,2.80
2018-07-24T12:27:25.416Z,3.10
2018-07-24T12:28:25.469Z,2.90
2018-07-24T12:29:25.433Z,3.00
2018-07-24T12:30:25.646Z,3.00
2018-07-24T12:31:25.451Z,3.50
2018-07-24T12:32:25.458Z,3.70
2018-07-24T12:33:25.465Z,3.30
2018-07-24T12:34:25.487Z,3.60
2018-07-24T12:35:25.494Z,3.30
2018-07-24T12:36:25.491Z,3.70
2018-07-24T12:37:25.500Z,3.60
2018-07-24T12:38:25.520Z,4.00
2018-07-24T12:39:25.525Z,3.70
2018-07-24T12:40:25.755Z,3.70
2018-07-24T12:41:25.542Z,3.30
2018-07-24T12:42:25.740Z,3.50
2018-07-24T12:43:25.827Z,3.20
2018-07-24T12:44:25.553Z,3.10
2018-07-24T12:45:25.565Z,3.40
2018-07-24T12:46:25.568Z,2.80
2018-07-24T12:47:25.588Z,2.80
2018-07-24T12:48:25.602Z,3.10
2018-07-24T12:49:25.603Z,3.60
2018-07-24T12:50:25.828Z,3.50
2018-07-24T12:51:25.610Z,3.50
2018-07-24T12:52:25.625Z,3.10
2018-07-24T12:53:25.629Z,3.50
2018-07-24T12:54:25.636Z,3.40
2018-07-24T12:55:25.647Z,3.60
2018-07-24T12:56:25.652Z,3.30
2018-07-24T12:57:25.672Z,3.20
2018-07-24T12:58:25.866Z,3.60
2018-07-24T12:59:25.678Z,4.90
2018-07-24T13:00:25.684Z,4.00
2018-07-24T13:01:25.693Z,3.90
2018-07-24T13:02:25.700Z,3.90
2018-07-24T13:03:25.736Z,3.90